Time;durP1;ratioP1;P1;durP2;ratioP2;P2;SDS_P1;SDS_P2;PMS_P1;PMS_P2;Temp;Humidity;BMP_temperature;BMP_pressure;BME280_temperature;BME280_humidity;BME280_pressure;Samples;Min_cycle;Max_cycle;Signal;HPM_P1;HPM_P2
2021/07/15 04:30:58;;;;;;;0.50;0.40;;;15.60;99.90;;;;;;6069717;23;20362;31
2021/07/15 04:33:25;;;;;;;0.73;0.70;;;15.60;99.90;;;;;;4897347;29;20473;-80
2021/07/15 04:35:54;;;;;;;0.40;0.40;;;15.60;99.90;;;;;;4901586;29;20423;-80
2021/07/15 04:38:21;;;;;;;0.40;0.40;;;15.70;99.90;;;;;;4895570;29;20441;-80
2021/07/15 04:40:50;;;;;;;0.50;0.40;;;15.70;99.90;;;;;;4903184;29;20407;-80
2021/07/15 04:43:16;;;;;;;0.50;0.33;;;15.60;99.90;;;;;;4902215;29;20447;-80
2021/07/15 04:45:43;;;;;;;0.50;0.40;;;15.70;99.90;;;;;;4902917;29;20429;-80
2021/07/15 04:48:09;;;;;;;0.43;0.40;;;15.70;99.90;;;;;;4900441;29;20554;-81
2021/07/15 04:50:36;;;;;;;0.70;0.40;;;15.70;99.90;;;;;;4890885;29;20460;-80
2021/07/15 04:53:07;;;;;;;0.50;0.50;;;15.70;99.90;;;;;;4899855;29;20819;-81
2021/07/15 04:55:34;;;;;;;0.40;0.40;;;15.80;99.90;;;;;;4901559;29;20461;-81
2021/07/15 04:58:03;;;;;;;0.50;0.40;;;15.80;99.90;;;;;;4899626;29;20490;-81
2021/07/15 05:00:28;;;;;;;0.50;0.50;;;15.90;99.90;;;;;;4900491;29;20423;-79
2021/07/15 05:03:01;;;;;;;0.70;0.40;;;15.90;99.90;;;;;;4898318;29;20675;-79
2021/07/15 05:05:26;;;;;;;1.07;0.30;;;15.90;99.90;;;;;;4899427;29;20179;-79
2021/07/15 05:07:52;;;;;;;0.90;0.40;;;15.90;99.90;;;;;;4899029;29;20431;-81
2021/07/15 05:10:18;;;;;;;0.47;0.40;;;16.00;99.90;;;;;;4897564;29;20199;-78
2021/07/15 05:12:44;;;;;;;1.53;0.40;;;16.00;99.90;;;;;;4899604;29;20518;-77
2021/07/15 05:15:11;;;;;;;1.63;0.40;;;16.00;99.90;;;;;;4899710;29;20975;-79
2021/07/15 05:17:37;;;;;;;1.93;0.40;;;16.00;99.90;;;;;;4899945;29;20197;-78
2021/07/15 05:20:07;;;;;;;0.87;0.30;;;16.10;99.90;;;;;;4897852;29;20488;-78
2021/07/15 05:22:33;;;;;;;0.80;0.40;;;16.10;99.90;;;;;;4898000;29;20475;-78
2021/07/15 05:24:59;;;;;;;2.33;0.60;;;16.10;99.90;;;;;;4898667;29;20796;-78
2021/07/15 05:27:25;;;;;;;4.57;0.40;;;16.10;99.90;;;;;;4897700;29;20186;-78
2021/07/15 05:29:50;;;;;;;0.40;0.30;;;16.10;99.90;;;;;;4898993;29;20246;-79
2021/07/15 05:32:16;;;;;;;0.40;0.30;;;16.10;99.90;;;;;;4895281;29;20238;-78
2021/07/15 05:34:41;;;;;;;1.07;0.70;;;16.10;99.90;;;;;;4897172;29;20199;-79
2021/07/15 05:37:07;;;;;;;1.80;0.40;;;16.10;99.90;;;;;;4898465;29;20231;-78
2021/07/15 05:39:32;;;;;;;0.37;0.30;;;16.10;99.90;;;;;;4898964;29;20626;-78
2021/07/15 05:41:58;;;;;;;1.53;0.37;;;16.10;99.90;;;;;;4894376;29;20685;-78
2021/07/15 05:44:24;;;;;;;0.47;0.40;;;16.10;99.90;;;;;;4899165;29;20684;-78
2021/07/15 05:46:50;;;;;;;1.43;0.40;;;16.20;99.90;;;;;;4898620;29;20190;-78
2021/07/15 05:49:15;;;;;;;0.50;0.50;;;16.20;99.90;;;;;;4899361;29;20187;-78
2021/07/15 05:51:46;;;;;;;1.90;0.60;;;16.30;99.90;;;;;;4898589;29;20680;-78
2021/07/15 05:54:12;;;;;;;0.50;0.40;;;16.40;99.90;;;;;;4896067;29;20198;-78
2021/07/15 05:56:38;;;;;;;0.70;0.30;;;16.40;99.90;;;;;;4898118;29;20461;-78
2021/07/15 05:59:03;;;;;;;1.80;0.50;;;16.40;99.90;;;;;;4898533;29;20446;-78
2021/07/15 06:01:29;;;;;;;7.13;0.50;;;16.60;99.90;;;;;;4898264;29;20270;-78
2021/07/15 06:03:54;;;;;;;0.77;0.37;;;16.60;99.90;;;;;;4897109;29;20204;-78
2021/07/15 06:06:20;;;;;;;1.67;0.40;;;16.60;99.90;;;;;;4899179;29;20195;-78
2021/07/15 06:08:47;;;;;;;1.70;0.40;;;16.70;99.90;;;;;;4898215;29;20262;-78
2021/07/15 06:11:13;;;;;;;1.77;0.40;;;16.80;99.90;;;;;;4899920;29;20201;-78
2021/07/15 06:13:38;;;;;;;3.50;0.80;;;16.80;99.90;;;;;;4896084;29;20446;-78
2021/07/15 06:16:04;;;;;;;1.73;0.50;;;16.90;99.90;;;;;;4901025;29;20430;-79
2021/07/15 06:18:30;;;;;;;1.33;0.30;;;16.90;99.90;;;;;;4902487;29;20229;-78
2021/07/15 06:20:55;;;;;;;0.40;0.30;;;17.00;99.90;;;;;;4899565;29;20221;-78
2021/07/15 06:23:21;;;;;;;0.40;0.30;;;17.00;99.90;;;;;;4899439;29;20182;-78
2021/07/15 06:25:46;;;;;;;1.50;0.40;;;17.00;99.90;;;;;;4895848;29;20187;-76
2021/07/15 06:28:12;;;;;;;0.50;0.40;;;17.10;99.90;;;;;;4895226;29;20190;-76
2021/07/15 06:30:37;;;;;;;0.70;0.40;;;17.00;99.90;;;;;;4891911;29;20274;-76
2021/07/15 06:33:03;;;;;;;0.90;0.57;;;17.00;99.90;;;;;;4891293;29;20221;-76
2021/07/15 06:35:29;;;;;;;0.90;0.37;;;17.10;99.90;;;;;;4895413;29;20210;-76
2021/07/15 06:37:55;;;;;;;0.50;0.37;;;17.00;99.90;;;;;;4895613;29;20191;-76
2021/07/15 06:40:22;;;;;;;0.80;0.33;;;17.00;99.90;;;;;;4895228;29;20704;-76
2021/07/15 06:42:48;;;;;;;1.37;0.40;;;17.20;99.90;;;;;;4892776;29;20223;-76
2021/07/15 06:45:15;;;;;;;0.40;0.40;;;17.30;99.90;;;;;;4897380;29;20442;-76
2021/07/15 06:47:42;;;;;;;5.43;0.40;;;17.40;99.90;;;;;;4893686;29;20506;-76
2021/07/15 06:50:10;;;;;;;2.20;0.60;;;17.40;99.90;;;;;;4896162;29;20435;-76
2021/07/15 06:52:36;;;;;;;0.57;0.50;;;17.50;99.90;;;;;;4894935;29;20506;-76
2021/07/15 06:55:03;;;;;;;0.40;0.30;;;17.40;99.90;;;;;;4895064;29;20478;-76
2021/07/15 06:57:29;;;;;;;1.00;0.40;;;17.40;99.90;;;;;;4893981;29;20443;-77
2021/07/15 06:59:55;;;;;;;11.43;0.70;;;17.40;99.90;;;;;;4896137;29;20423;-77
2021/07/15 07:02:21;;;;;;;0.70;0.40;;;17.40;99.90;;;;;;4895836;29;20481;-76
2021/07/15 07:04:47;;;;;;;0.40;0.40;;;17.30;99.90;;;;;;4893925;29;20879;-76
2021/07/15 07:07:12;;;;;;;2.00;0.40;;;17.30;99.90;;;;;;4896100;29;20462;-77
2021/07/15 07:09:38;;;;;;;3.00;0.50;;;17.20;99.90;;;;;;4909301;29;20218;-77
2021/07/15 07:12:04;;;;;;;2.23;0.40;;;17.30;99.90;;;;;;4894575;29;20271;-77
2021/07/15 07:14:29;;;;;;;0.60;0.40;;;17.40;99.90;;;;;;4894798;29;20257;-76
2021/07/15 07:16:55;;;;;;;0.70;0.40;;;17.50;99.90;;;;;;4896194;29;20557;-77
2021/07/15 07:19:20;;;;;;;1.47;0.40;;;17.70;99.90;;;;;;4894790;29;20229;-77
2021/07/15 07:21:46;;;;;;;6.83;0.97;;;17.90;99.90;;;;;;4895925;29;20219;-77
2021/07/15 07:24:12;;;;;;;0.90;0.40;;;18.30;99.90;;;;;;4894763;29;20608;-77
2021/07/15 07:26:37;;;;;;;1.40;0.57;;;18.60;99.90;;;;;;4889614;29;20684;-77
2021/07/15 07:29:05;;;;;;;0.60;0.40;;;18.80;99.90;;;;;;4895257;29;20666;-77
2021/07/15 07:31:31;;;;;;;0.50;0.40;;;18.90;99.90;;;;;;4890178;29;20230;-77
2021/07/15 07:33:56;;;;;;;1.17;0.50;;;18.80;99.90;;;;;;4894787;29;20465;-77
2021/07/15 07:36:22;;;;;;;3.50;0.50;;;18.60;99.90;;;;;;4893496;29;20443;-77
2021/07/15 07:38:47;;;;;;;2.50;0.50;;;18.40;99.90;;;;;;4895362;29;20222;-77
2021/07/15 07:41:13;;;;;;;3.87;0.50;;;18.40;99.90;;;;;;4891792;29;20211;-77
2021/07/15 07:43:39;;;;;;;1.23;0.43;;;18.20;99.90;;;;;;4893711;29;20197;-77
2021/07/15 07:46:05;;;;;;;1.60;0.50;;;18.20;99.90;;;;;;4894878;29;20175;-75
2021/07/15 07:48:30;;;;;;;1.00;0.40;;;18.00;99.90;;;;;;4895007;29;20657;-74
2021/07/15 07:51:00;;;;;;;1.60;0.47;;;18.00;99.90;;;;;;4894687;29;20542;-74
2021/07/15 07:53:27;;;;;;;1.27;0.30;;;18.00;99.90;;;;;;4894257;29;20580;-74
2021/07/15 07:55:53;;;;;;;1.13;1.03;;;18.00;99.90;;;;;;4895930;29;20422;-74
2021/07/15 07:58:20;;;;;;;1.17;0.57;;;18.00;99.90;;;;;;4895013;29;20458;-76
2021/07/15 08:00:46;;;;;;;12.67;2.13;;;18.10;99.90;;;;;;4899290;29;20462;-77
2021/07/15 08:03:11;;;;;;;3.80;0.60;;;18.20;99.90;;;;;;4898090;29;20975;-76
2021/07/15 08:05:40;;;;;;;3.43;0.50;;;18.40;99.90;;;;;;4899175;29;20191;-77
2021/07/15 08:08:06;;;;;;;1.17;0.53;;;18.60;99.90;;;;;;4897856;29;20195;-74
2021/07/15 08:10:32;;;;;;;0.70;0.37;;;18.90;99.90;;;;;;4897961;29;20789;-74
2021/07/15 08:12:57;;;;;;;1.43;0.57;;;19.30;99.90;;;;;;4897788;29;20218;-74
2021/07/15 08:15:23;;;;;;;2.10;0.40;;;19.60;99.90;;;;;;4897726;29;20205;-74
2021/07/15 08:17:49;;;;;;;1.33;0.50;;;19.90;99.90;;;;;;4898900;29;20182;-74
2021/07/15 08:20:14;;;;;;;0.70;0.50;;;20.20;99.90;;;;;;4896735;29;20194;-74
2021/07/15 08:22:41;;;;;;;0.50;0.40;;;20.20;99.90;;;;;;4898383;29;20218;-74
2021/07/15 08:25:08;;;;;;;2.10;0.47;;;20.20;99.90;;;;;;4897015;29;20319;-74
2021/07/15 08:27:33;;;;;;;0.50;0.40;;;20.10;99.90;;;;;;4897499;29;20470;-74
2021/07/15 08:29:59;;;;;;;1.70;0.73;;;20.10;99.90;;;;;;4897454;29;20501;-74
2021/07/15 08:32:25;;;;;;;0.60;0.40;;;20.00;99.90;;;;;;4893126;29;20362;-74
2021/07/15 08:34:50;;;;;;;0.40;0.40;;;19.80;99.90;;;;;;4896759;29;20191;-75
2021/07/15 08:37:16;;;;;;;2.20;0.30;;;19.80;99.90;;;;;;4897371;29;20606;-75
2021/07/15 08:39:41;;;;;;;1.50;0.40;;;19.80;99.90;;;;;;4898259;29;20195;-74
2021/07/15 08:42:09;;;;;;;0.70;0.40;;;19.90;99.90;;;;;;4896328;29;20226;-75
2021/07/15 08:44:38;;;;;;;0.40;0.40;;;20.10;99.90;;;;;;4898025;29;20209;-74
2021/07/15 08:47:04;;;;;;;3.57;0.30;;;20.20;99.90;;;;;;4897641;29;20924;-75
2021/07/15 08:49:29;;;;;;;0.40;0.40;;;20.40;99.90;;;;;;4898131;29;20429;-75
2021/07/15 08:51:55;;;;;;;0.50;0.40;;;20.40;99.90;;;;;;4897107;29;20453;-75
2021/07/15 08:54:28;;;;;;;1.23;0.37;;;20.60;99.90;;;;;;4896949;29;20609;-74
2021/07/15 08:56:53;;;;;;;1.80;0.40;;;20.40;99.90;;;;;;4897220;29;20222;-75
2021/07/15 08:59:19;;;;;;;0.40;0.30;;;20.40;99.90;;;;;;4896871;29;20871;-75
2021/07/15 09:01:47;;;;;;;1.53;0.30;;;20.30;99.90;;;;;;4897660;29;21111;-75
2021/07/15 09:04:13;;;;;;;0.97;0.40;;;20.30;99.90;;;;;;4895807;29;20287;-75
2021/07/15 09:06:42;;;;;;;0.40;0.40;;;20.20;99.90;;;;;;4897642;29;20431;-75
2021/07/15 09:09:09;;;;;;;0.40;0.33;;;20.10;99.90;;;;;;4897114;29;20443;-75
2021/07/15 09:11:35;;;;;;;1.80;0.30;;;20.00;99.90;;;;;;4897827;29;20952;-76
2021/07/15 09:14:01;;;;;;;0.87;0.33;;;19.90;99.90;;;;;;4895859;29;20466;-75
2021/07/15 09:16:26;;;;;;;2.50;0.40;;;19.80;99.90;;;;;;4896696;29;20238;-75
2021/07/15 09:19:00;;;;;;;0.40;0.30;;;19.70;99.90;;;;;;4896980;29;20504;-76
2021/07/15 09:21:31;;;;;;;2.30;0.40;;;19.70;99.90;;;;;;4896979;29;20217;-75
2021/07/15 09:23:57;;;;;;;1.00;0.40;;;19.60;99.90;;;;;;4897899;29;20474;-75
2021/07/15 09:26:24;;;;;;;1.03;0.40;;;19.50;99.90;;;;;;4892351;29;20530;-75
2021/07/15 09:28:50;;;;;;;0.80;0.50;;;19.50;99.90;;;;;;4895779;29;20826;-75
2021/07/15 09:31:22;;;;;;;2.10;0.50;;;19.30;99.90;;;;;;4893279;29;20471;-76
2021/07/15 09:33:48;;;;;;;1.93;0.50;;;19.30;99.90;;;;;;4897337;29;20191;-76
2021/07/15 09:36:17;;;;;;;6.83;0.90;;;19.10;99.90;;;;;;4896895;29;20530;-76
2021/07/15 09:38:44;;;;;;;0.60;0.50;;;19.00;99.90;;;;;;4897230;29;20454;-76
2021/07/15 09:41:14;;;;;;;1.53;0.47;;;19.00;99.90;;;;;;4895803;29;20995;-76
2021/07/15 09:43:41;;;;;;;0.50;0.50;;;18.80;99.90;;;;;;4893977;29;20433;-77
2021/07/15 09:46:13;;;;;;;1.00;0.40;;;18.70;99.90;;;;;;4897840;29;20418;-77
2021/07/15 09:48:42;;;;;;;0.83;0.60;;;18.60;99.90;;;;;;4893381;29;20462;-77
2021/07/15 09:51:11;;;;;;;2.63;0.40;;;18.50;99.90;;;;;;4897443;29;20474;-77
2021/07/15 09:53:36;;;;;;;0.90;0.40;;;18.30;99.90;;;;;;4896230;29;20541;-77
2021/07/15 09:56:06;;;;;;;0.97;0.40;;;18.40;99.90;;;;;;4897125;29;20502;-77
2021/07/15 09:58:46;;;;;;;1.20;0.50;;;18.50;99.90;;;;;;4895333;29;20222;-78
2021/07/15 10:01:24;;;;;;;1.47;0.40;;;18.40;99.90;;;;;;4897103;29;20485;-78
2021/07/15 10:03:52;;;;;;;1.43;0.50;;;18.30;99.90;;;;;;4896023;29;20442;-78
2021/07/15 10:06:18;;;;;;;1.53;0.50;;;18.40;99.90;;;;;;4899762;29;20415;-78
2021/07/15 10:08:46;;;;;;;0.47;0.43;;;18.40;99.90;;;;;;4900446;29;20513;-78
2021/07/15 10:11:15;;;;;;;0.40;0.40;;;18.40;99.90;;;;;;4910664;29;20463;-77
2021/07/15 10:13:41;;;;;;;0.50;0.50;;;18.40;99.90;;;;;;4894597;29;20932;-76
2021/07/15 10:16:08;;;;;;;2.40;0.60;;;18.40;99.90;;;;;;4896911;29;20470;-77
2021/07/15 10:18:44;;;;;;;2.70;0.90;;;18.30;99.90;;;;;;4895977;29;20431;-76
2021/07/15 10:21:12;;;;;;;7.50;3.00;;;18.30;99.90;;;;;;4890609;29;20616;-77
2021/07/15 10:23:41;;;;;;;1.70;0.60;;;18.20;99.90;;;;;;4879370;29;20514;-77
2021/07/15 10:26:12;;;;;;;2.30;0.63;;;18.10;99.90;;;;;;4892681;29;20447;-76
2021/07/15 10:28:42;;;;;;;1.00;0.60;;;18.20;99.90;;;;;;4895277;29;20455;-77
2021/07/15 10:31:08;;;;;;;1.77;0.73;;;18.30;99.90;;;;;;4896094;29;20479;-77
2021/07/15 10:33:34;;;;;;;0.50;0.50;;;18.40;99.90;;;;;;4893078;29;20449;-77
2021/07/15 10:36:01;;;;;;;1.27;0.60;;;18.50;99.90;;;;;;4895547;29;20891;-76
2021/07/15 10:38:29;;;;;;;1.23;0.60;;;18.80;99.90;;;;;;4896511;29;20462;-76
2021/07/15 10:40:57;;;;;;;0.80;0.50;;;19.10;99.90;;;;;;4896195;29;20442;-76
2021/07/15 10:43:23;;;;;;;1.87;0.50;;;19.20;99.90;;;;;;4891117;29;20446;-76
2021/07/15 10:45:49;;;;;;;1.90;0.70;;;19.40;99.90;;;;;;4896484;29;20479;-76
2021/07/15 10:48:15;;;;;;;1.00;0.47;;;19.70;99.90;;;;;;4895379;29;20446;-76
2021/07/15 10:50:44;;;;;;;0.70;0.50;;;19.90;99.90;;;;;;4896321;29;20183;-76
2021/07/15 10:53:12;;;;;;;0.60;0.60;;;20.00;99.90;;;;;;4895013;29;20450;-76
2021/07/15 10:55:38;;;;;;;2.40;0.40;;;19.90;99.90;;;;;;4894394;29;20939;-76
2021/07/15 10:58:04;;;;;;;2.63;0.40;;;19.90;99.90;;;;;;4894254;29;20521;-76
2021/07/15 11:00:30;;;;;;;0.40;0.40;;;19.90;99.90;;;;;;4896058;29;20518;-77
2021/07/15 11:03:10;;;;;;;1.23;0.40;;;20.00;99.90;;;;;;4895523;29;20245;-76
2021/07/15 11:05:54;;;;;;;3.23;0.63;;;20.00;99.90;;;;;;4894405;29;20624;-76
2021/07/15 11:08:48;;;;;;;0.40;0.40;;;20.10;99.90;;;;;;4895871;29;20795;-76
2021/07/15 11:11:15;;;;;;;1.23;0.40;;;20.20;99.90;;;;;;4896052;29;20438;-76
2021/07/15 11:13:42;;;;;;;0.40;0.40;;;20.40;99.90;;;;;;4894748;29;20469;-76
2021/07/15 11:16:08;;;;;;;3.53;0.40;;;20.40;99.90;;;;;;4893842;29;20955;-76
2021/07/15 11:18:41;;;;;;;0.40;0.40;;;20.50;99.90;;;;;;4896053;29;20427;-76
2021/07/15 11:21:25;;;;;;;0.50;0.40;;;20.70;99.90;;;;;;4894192;29;20215;-76
2021/07/15 11:24:03;;;;;;;0.60;0.40;;;20.70;99.90;;;;;;4894865;29;20461;-77
2021/07/15 11:26:32;;;;;;;0.40;0.40;;;20.80;99.90;;;;;;4894440;29;20848;-75
2021/07/15 11:28:58;;;;;;;0.40;0.40;;;21.00;99.90;;;;;;4887782;29;20469;-76
2021/07/15 11:31:52;;;;;;;0.40;0.40;;;21.00;99.90;;;;;;4890407;29;20519;-76
2021/07/15 11:34:36;;;;;;;0.40;0.40;;;21.10;99.90;;;;;;4898570;29;20471;-76
2021/07/15 11:37:27;;;;;;;0.60;0.40;;;21.20;99.90;;;;;;4897935;29;20449;-76
2021/07/15 11:39:53;;;;;;;1.00;0.40;;;21.20;99.90;;;;;;4891786;29;20454;-75
2021/07/15 11:42:24;;;;;;;0.40;0.30;;;20.90;99.90;;;;;;4894800;29;21007;-74
2021/07/15 11:45:05;;;;;;;0.50;0.40;;;21.00;99.90;;;;;;4880871;29;20471;-74
2021/07/15 11:47:42;;;;;;;2.97;0.40;;;21.10;99.90;;;;;;4888341;29;20491;-76
2021/07/15 11:50:32;;;;;;;1.33;0.40;;;21.10;99.90;;;;;;4897960;29;20525;-75
2021/07/15 11:53:19;;;;;;;0.40;0.40;;;21.10;99.90;;;;;;4898180;29;20465;-75
2021/07/15 11:55:46;;;;;;;0.50;0.50;;;21.20;99.90;;;;;;4899230;29;20452;-74
2021/07/15 11:58:37;;;;;;;0.50;0.40;;;21.10;99.90;;;;;;4896571;29;20809;-73
2021/07/15 12:01:20;;;;;;;0.60;0.50;;;21.10;99.90;;;;;;4897802;29;20469;-75
2021/07/15 12:04:07;;;;;;;1.33;0.40;;;20.90;99.90;;;;;;4898217;29;20446;-76
2021/07/15 12:06:37;;;;;;;0.50;0.50;;;20.80;99.90;;;;;;4899282;29;20522;-75
2021/07/15 12:09:09;;;;;;;1.47;0.50;;;20.70;99.90;;;;;;4897887;29;20570;-76
2021/07/15 12:11:38;;;;;;;0.50;0.40;;;20.70;99.90;;;;;;4897313;29;20466;-77
2021/07/15 12:14:05;;;;;;;0.50;0.50;;;20.80;99.90;;;;;;4896572;29;20627;-75
2021/07/15 12:16:36;;;;;;;0.40;0.40;;;20.90;99.90;;;;;;4880224;29;20423;-76
2021/07/15 12:19:08;;;;;;;0.43;0.40;;;21.10;99.90;;;;;;4880536;29;20411;-76
2021/07/15 12:21:35;;;;;;;1.97;0.40;;;21.20;99.90;;;;;;4896856;29;20481;-76
2021/07/15 12:24:11;;;;;;;0.50;0.40;;;21.60;99.90;;;;;;4898869;29;20425;-76
2021/07/15 12:26:37;;;;;;;1.90;0.60;;;21.90;99.90;;;;;;4897663;29;20809;-77
2021/07/15 12:29:04;;;;;;;1.27;0.60;;;22.00;99.90;;;;;;4898028;29;20438;-76
2021/07/15 12:31:31;;;;;;;0.57;0.57;;;22.30;99.90;;;;;;4893084;29;20490;-76
2021/07/15 12:34:02;;;;;;;0.50;0.40;;;22.60;99.90;;;;;;4897452;29;20864;-76
2021/07/15 12:36:28;;;;;;;0.70;0.50;;;22.80;99.90;;;;;;4897598;29;20446;-75
2021/07/15 12:39:00;;;;;;;0.60;0.60;;;22.70;99.90;;;;;;4898854;29;20435;-76
2021/07/15 12:41:27;;;;;;;0.60;0.50;;;22.70;99.90;;;;;;4896256;29;20263;-77
2021/07/15 12:43:53;;;;;;;0.50;0.50;;;22.90;99.90;;;;;;4895629;29;20447;-75
2021/07/15 12:46:35;;;;;;;2.13;0.40;;;22.90;99.90;;;;;;4897893;29;20411;-75
2021/07/15 12:49:11;;;;;;;0.70;0.50;;;22.80;99.90;;;;;;4897167;29;20434;-76
2021/07/15 12:51:42;;;;;;;1.07;0.60;;;22.90;99.90;;;;;;4898208;29;20860;-76
2021/07/15 12:54:16;;;;;;;0.70;0.70;;;22.80;99.90;;;;;;4896203;29;20451;-75
2021/07/15 12:56:42;;;;;;;0.50;0.50;;;22.60;99.90;;;;;;4898214;29;20415;-76
2021/07/15 12:59:11;;;;;;;0.70;0.53;;;22.50;99.90;;;;;;4897610;29;20932;-76
2021/07/15 13:01:43;;;;;;;0.77;0.50;;;22.40;99.90;;;;;;4898198;29;20471;-76
2021/07/15 13:04:12;;;;;;;10.63;0.70;;;22.30;99.90;;;;;;4896584;29;20443;-76
2021/07/15 13:06:41;;;;;;;0.60;0.60;;;22.10;99.90;;;;;;4897080;29;20526;-76
2021/07/15 13:09:26;;;;;;;0.87;0.60;;;22.00;99.90;;;;;;4897329;29;20795;-77
2021/07/15 13:14:57;;;;;;;0.70;0.70;;;21.70;99.90;;;;;;4896379;29;20454;-76
2021/07/15 13:17:37;;;;;;;2.40;0.67;;;21.60;99.90;;;;;;4898354;29;20463;-75
2021/07/15 13:20:14;;;;;;;1.53;0.70;;;21.50;99.90;;;;;;4897391;29;20446;-76
2021/07/15 13:22:43;;;;;;;0.70;0.70;;;21.40;99.90;;;;;;4898256;29;20920;-76
2021/07/15 13:25:13;;;;;;;0.57;0.57;;;21.40;99.90;;;;;;4897321;29;20532;-76
2021/07/15 13:27:43;;;;;;;3.60;0.60;;;21.30;99.90;;;;;;4892947;29;20601;-75
2021/07/15 13:30:13;;;;;;;0.90;0.60;;;21.20;99.90;;;;;;4895341;29;20589;-75
2021/07/15 13:32:39;;;;;;;1.80;0.70;;;21.20;99.90;;;;;;4891243;29;20483;-76
2021/07/15 13:35:11;;;;;;;0.73;0.60;;;21.20;99.90;;;;;;4912332;29;20439;-76
2021/07/15 13:37:37;;;;;;;0.93;0.80;;;21.20;99.90;;;;;;4896002;29;20238;-76
2021/07/15 13:40:19;;;;;;;0.60;0.60;;;21.20;99.90;;;;;;4897874;29;20427;-76
2021/07/15 13:42:47;;;;;;;0.80;0.70;;;21.20;99.90;;;;;;4891486;29;20218;-76
2021/07/15 13:45:21;;;;;;;0.93;0.80;;;21.30;99.90;;;;;;4897624;29;20892;-76
2021/07/15 13:47:46;;;;;;;0.60;0.60;;;21.30;99.90;;;;;;4896301;29;20447;-76
2021/07/15 13:50:26;;;;;;;0.50;0.50;;;21.40;99.90;;;;;;4897593;29;20920;-76
2021/07/15 13:52:56;;;;;;;0.70;0.70;;;21.50;99.90;;;;;;4895103;29;20276;-76
2021/07/15 13:55:24;;;;;;;0.50;0.50;;;21.80;99.90;;;;;;4895769;29;20970;-76
2021/07/15 13:57:52;;;;;;;1.17;0.67;;;21.70;99.90;;;;;;4895275;29;21059;-76
2021/07/15 14:00:20;;;;;;;0.80;0.40;;;21.80;99.90;;;;;;4897184;29;20433;-76
2021/07/15 14:02:47;;;;;;;1.00;0.57;;;21.80;99.90;;;;;;4896820;29;20549;-76
2021/07/15 14:05:14;;;;;;;0.70;0.70;;;21.90;99.90;;;;;;4896234;29;20944;-76
2021/07/15 14:07:40;;;;;;;0.53;0.53;;;22.00;99.90;;;;;;4896866;29;20422;-77
2021/07/15 14:10:09;;;;;;;0.50;0.50;;;22.10;99.90;;;;;;4894326;29;20446;-77
2021/07/15 14:12:35;;;;;;;0.90;0.70;;;22.20;99.90;;;;;;4894845;29;20557;-75
2021/07/15 14:15:00;;;;;;;1.07;0.70;;;22.20;99.90;;;;;;4896224;29;20514;-75
2021/07/15 14:17:26;;;;;;;0.63;0.63;;;22.30;99.90;;;;;;4897066;29;20183;-77
2021/07/15 14:19:53;;;;;;;0.70;0.60;;;22.60;99.90;;;;;;4895911;29;20660;-75
2021/07/15 14:22:20;;;;;;;8.30;0.60;;;22.70;99.90;;;;;;4895409;29;20345;-77
2021/07/15 14:24:45;;;;;;;0.70;0.70;;;22.90;99.90;;;;;;4896077;29;20782;-77
2021/07/15 14:27:17;;;;;;;0.93;0.80;;;22.90;99.90;;;;;;4895356;29;20629;-77
2021/07/15 14:29:44;;;;;;;0.60;0.60;;;22.90;99.90;;;;;;4895745;29;20204;-76
2021/07/15 14:32:10;;;;;;;1.70;0.50;;;22.90;99.90;;;;;;4891481;29;21034;-77
2021/07/15 14:34:35;;;;;;;0.70;0.70;;;23.00;99.90;;;;;;4893002;29;20474;-77
2021/07/15 14:37:01;;;;;;;0.90;0.90;;;23.20;99.90;;;;;;4895639;29;20791;-75
2021/07/15 14:39:26;;;;;;;1.03;0.93;;;23.00;99.90;;;;;;4896873;29;20708;-77
2021/07/15 14:41:52;;;;;;;2.60;0.60;;;23.00;99.90;;;;;;4895310;29;20598;-77
2021/07/15 14:44:18;;;;;;;0.90;0.80;;;23.10;99.90;;;;;;4884699;29;20190;-76
2021/07/15 14:46:43;;;;;;;1.93;0.70;;;23.00;99.90;;;;;;4890168;29;20241;-76
2021/07/15 14:49:09;;;;;;;0.77;0.77;;;23.00;99.90;;;;;;4906870;29;20206;-76
2021/07/15 14:51:34;;;;;;;1.53;0.93;;;22.90;99.90;;;;;;4906731;29;20266;-77
2021/07/15 14:54:00;;;;;;;1.00;0.60;;;22.90;99.90;;;;;;4905812;29;20205;-76
2021/07/15 14:56:27;;;;;;;1.70;1.60;;;22.90;99.90;;;;;;4906689;29;20185;-76
2021/07/15 14:58:53;;;;;;;4.07;0.77;;;23.10;99.90;;;;;;4907093;29;20213;-76
2021/07/15 15:01:21;;;;;;;1.47;0.90;;;23.20;99.90;;;;;;4921805;29;20478;-77
2021/07/15 15:03:47;;;;;;;0.90;0.90;;;23.00;99.90;;;;;;4906222;29;20469;-77
2021/07/15 15:06:12;;;;;;;0.73;0.73;;;22.90;99.90;;;;;;4906072;29;20442;-77
2021/07/15 15:08:38;;;;;;;0.83;0.83;;;22.70;99.90;;;;;;4902126;29;20415;-77
2021/07/15 15:11:04;;;;;;;1.17;1.03;;;22.60;99.90;;;;;;4901101;29;20671;-76
2021/07/15 15:13:30;;;;;;;1.07;1.07;;;22.40;99.90;;;;;;4897427;29;20205;-76
2021/07/15 15:15:57;;;;;;;1.30;1.30;;;22.30;99.90;;;;;;4897878;29;20182;-76
2021/07/15 15:18:22;;;;;;;2.93;1.40;;;22.20;99.90;;;;;;4900539;29;20185;-76
2021/07/15 15:20:48;;;;;;;0.97;0.97;;;22.00;99.90;;;;;;4898573;29;20952;-76
2021/07/15 15:23:14;;;;;;;4.10;1.50;;;21.90;99.90;;;;;;4900733;29;20288;-76
2021/07/15 15:25:39;;;;;;;7.73;1.07;;;21.70;99.90;;;;;;4898722;29;20668;-77
2021/07/15 15:28:05;;;;;;;1.10;1.10;;;21.60;99.90;;;;;;4890050;29;20179;-76
2021/07/15 15:30:31;;;;;;;2.13;2.03;;;21.50;99.90;;;;;;4898810;29;20214;-77
2021/07/15 15:32:56;;;;;;;1.00;1.00;;;21.50;99.90;;;;;;4894763;29;20616;-76
2021/07/15 15:35:22;;;;;;;2.40;1.23;;;21.60;99.90;;;;;;4898787;29;20186;-76
2021/07/15 15:37:47;;;;;;;1.23;1.13;;;21.60;99.90;;;;;;4898658;29;20195;-76
2021/07/15 15:40:14;;;;;;;1.57;1.47;;;21.60;99.90;;;;;;4899822;29;20770;-76
2021/07/15 15:42:40;;;;;;;2.10;1.40;;;21.70;99.90;;;;;;4898761;29;20225;-76
2021/07/15 15:45:06;;;;;;;1.10;1.10;;;21.80;99.90;;;;;;4895179;29;20426;-77
2021/07/15 15:47:32;;;;;;;3.47;1.33;;;22.00;99.90;;;;;;4898649;29;20449;-76
2021/07/15 15:49:58;;;;;;;1.43;1.33;;;22.00;99.90;;;;;;4895119;29;20431;-76
2021/07/15 15:52:23;;;;;;;2.67;1.27;;;22.00;99.90;;;;;;4881637;29;20210;-74
2021/07/15 15:54:49;;;;;;;1.60;1.50;;;22.00;99.90;;;;;;4899648;29;20181;-76
2021/07/15 15:57:15;;;;;;;1.33;1.23;;;22.00;99.90;;;;;;4899679;29;20598;-76
2021/07/15 15:59:41;;;;;;;0.90;0.90;;;22.00;99.90;;;;;;4894945;29;20578;-76
2021/07/15 16:02:07;;;;;;;1.40;1.30;;;21.90;99.90;;;;;;4899468;29;20643;-76
2021/07/15 16:04:33;;;;;;;1.80;0.93;;;21.80;99.90;;;;;;4897181;29;20186;-75
2021/07/15 16:06:59;;;;;;;1.87;1.17;;;21.80;99.90;;;;;;4899445;29;20996;-75
2021/07/15 16:09:26;;;;;;;1.23;0.93;;;21.80;99.90;;;;;;4898318;29;20243;-76
2021/07/15 16:11:53;;;;;;;1.07;0.80;;;21.80;99.90;;;;;;4898435;29;20466;-76
2021/07/15 16:14:20;;;;;;;1.40;1.30;;;21.80;99.90;;;;;;4895974;29;20435;-76
2021/07/15 16:16:46;;;;;;;0.93;0.93;;;21.80;99.90;;;;;;4897501;29;20527;-76
2021/07/15 16:19:11;;;;;;;3.23;1.17;;;21.80;99.90;;;;;;4899150;29;20959;-76
2021/07/15 16:21:42;;;;;;;2.13;0.73;;;21.70;99.90;;;;;;4895911;29;20229;-75
2021/07/15 16:24:07;;;;;;;4.10;0.70;;;21.80;99.90;;;;;;4899248;29;20262;-76
2021/07/15 16:26:34;;;;;;;1.30;1.20;;;21.70;99.90;;;;;;4897241;29;20518;-76
2021/07/15 16:28:59;;;;;;;1.20;1.07;;;21.80;99.90;;;;;;4898209;29;20196;-76
2021/07/15 16:31:25;;;;;;;1.43;1.10;;;21.80;99.90;;;;;;4894887;29;20966;-75
2021/07/15 16:33:51;;;;;;;0.90;0.87;;;21.90;99.90;;;;;;4897430;29;20191;-76
2021/07/15 16:36:16;;;;;;;1.13;1.03;;;21.90;99.90;;;;;;4898468;29;20190;-76
2021/07/15 16:38:42;;;;;;;5.47;1.10;;;21.80;99.90;;;;;;4898102;29;20201;-76
2021/07/15 16:41:08;;;;;;;3.37;1.20;;;21.70;99.90;;;;;;4898647;29;20195;-76
2021/07/15 16:43:34;;;;;;;0.90;0.90;;;21.70;99.90;;;;;;4893292;29;20496;-76
2021/07/15 16:46:02;;;;;;;0.90;0.90;;;21.60;99.90;;;;;;4897954;29;20193;-76
2021/07/15 16:48:28;;;;;;;1.30;1.30;;;21.50;99.90;;;;;;4897448;29;20183;-76
2021/07/15 16:50:54;;;;;;;0.90;0.90;;;21.40;99.90;;;;;;4898576;29;20419;-75
2021/07/15 16:53:22;;;;;;;1.63;1.50;;;21.40;99.90;;;;;;4897398;29;20494;-76
2021/07/15 16:55:47;;;;;;;1.90;1.20;;;21.30;99.90;;;;;;4896731;29;20453;-75
2021/07/15 16:58:13;;;;;;;1.00;0.90;;;21.30;99.90;;;;;;4897341;29;20538;-76
2021/07/15 17:00:39;;;;;;;1.23;1.20;;;21.30;99.90;;;;;;4897634;29;20515;-76
2021/07/15 17:03:04;;;;;;;1.10;1.10;;;21.30;99.90;;;;;;4897825;29;20214;-75
2021/07/15 17:05:30;;;;;;;2.50;1.20;;;21.20;99.90;;;;;;4897072;29;20186;-76
2021/07/15 17:07:56;;;;;;;3.40;1.27;;;21.00;99.90;;;;;;4898518;29;20190;-76
2021/07/15 17:10:21;;;;;;;0.80;0.80;;;21.00;99.90;;;;;;4895816;29;20183;-76
2021/07/15 17:12:47;;;;;;;2.30;1.10;;;20.90;99.90;;;;;;4897870;29;20199;-75
2021/07/15 17:15:12;;;;;;;1.23;1.20;;;20.80;99.90;;;;;;4895842;29;20198;-76
2021/07/15 17:17:39;;;;;;;3.10;2.57;;;20.70;99.90;;;;;;4897703;29;20311;-76
2021/07/15 17:20:07;;;;;;;2.33;1.40;;;20.70;99.90;;;;;;4895872;29;20191;-75
2021/07/15 17:22:33;;;;;;;2.00;1.20;;;20.70;99.90;;;;;;4896804;29;20474;-75
2021/07/15 17:24:58;;;;;;;1.97;1.30;;;20.60;99.90;;;;;;4897489;29;20411;-76